• Join FlightAware (Why Join?)
  • Login
  • US Flag 
10:36AM EDT


 

Airport Tracker/Info


-or-


 

Live Flight TrackerFlight Track Log ✈ TAM3387 ✈ 26-May-2013 ✈ SBBE / BEL - SBGR / GRU

Flight Track Log - Related Links

Times and Time Zones

All times are in EDT time to prevent confusion due to time zone crossing. See the TAM3387 flight status page for this flight to view local times or setup timezone preferences in your user account.

Time Position Orientation Groundspeed Altitude Reporting Facility
EDT Latitude Longitude Course Direction KTS MPH feet Rate Location/Type
06:49AM -4.1223 -48.2411 175° South  Level Estimated
06:50AM -4.2320 -48.2316 175° South  Level Estimated
06:51AM -4.3417 -48.2222 175° South  Level Estimated
06:52AM -4.4514 -48.2127 175° South  Level Estimated
06:53AM -4.5612 -48.2033 175° South  Level Estimated
06:54AM -4.6709 -48.1938 175° South  Level Estimated
06:55AM -4.7806 -48.1844 175° South  Level Estimated
06:56AM -4.8903 -48.1749 175° South  Level Estimated
06:57AM -5.0000 -48.1655 175° South  Level Estimated
06:58AM -5.1199 -48.1552 175° South  Level Estimated
06:59AM -5.2398 -48.1448 175° South  Level Estimated
07:00AM -5.3596 -48.1345 175° South  Level Estimated
07:01AM -5.4795 -48.1241 175° South  Level Estimated
07:02AM -5.5993 -48.1138 175° South  Level Estimated
07:03AM -5.7192 -48.1034 175° South  Level Estimated
07:04AM -5.8391 -48.0931 175° South  Level Estimated
07:05AM -5.9589 -48.0827 175° South  Level Estimated
07:06AM -6.0788 -48.0723 175° South  Level Estimated
07:07AM -6.1986 -48.0620 175° South  Level Estimated
07:08AM -6.3185 -48.0516 175° South  Level Estimated
07:09AM -6.4383 -48.0412 175° South  Level Estimated
07:10AM -6.5582 -48.0308 175° South  Level Estimated
07:11AM -6.6780 -48.0204 175° South  Level Estimated
07:12AM -6.7979 -48.0100 175° South  Level Estimated
07:13AM -6.9177 -47.9996 175° South  Level Estimated
07:14AM -7.0376 -47.9892 175° South  Level Estimated
07:15AM -7.1574 -47.9788 175° South  Level Estimated
07:16AM -7.2773 -47.9684 175° South  Level Estimated
07:17AM -7.3971 -47.9580 175° South  Level Estimated
07:18AM -7.5170 -47.9475 175° South  Level Estimated
07:19AM -7.6368 -47.9371 175° South  Level Estimated
07:20AM -7.7567 -47.9267 175° South  Level Estimated
07:21AM -7.8765 -47.9162 175° South  Level Estimated
07:22AM -7.9964 -47.9058 175° South  Level Estimated
07:23AM -8.1162 -47.8953 175° South  Level Estimated
07:24AM -8.2361 -47.8848 175° South  Level Estimated
07:25AM -8.3559 -47.8744 175° South  Level Estimated
07:26AM -8.4758 -47.8639 175° South  Level Estimated
07:27AM -8.5956 -47.8534 175° South  Level Estimated
07:28AM -8.7155 -47.8429 175° South  Level Estimated
07:29AM -8.8353 -47.8324 175° South  Level Estimated
07:30AM -8.9552 -47.8219 175° South  Level Estimated
07:31AM -9.0750 -47.8114 175° South  Level Estimated
07:32AM -9.1949 -47.8009 175° South  Level Estimated
07:33AM -9.3147 -47.7903 175° South  Level Estimated
07:34AM -9.4346 -47.7798 175° South  Level Estimated
07:35AM -9.5544 -47.7693 175° South  Level Estimated
07:36AM -9.6743 -47.7587 175° South  Level Estimated
07:37AM -9.7941 -47.7482 175° South  Level Estimated
07:38AM -9.9140 -47.7376 175° South  Level Estimated
07:39AM -10.0338 -47.7270 175° South  Level Estimated
07:40AM -10.1537 -47.7164 175° South  Level Estimated
07:41AM -10.2735 -47.7059 175° South  Level Estimated
07:42AM -10.3933 -47.6953 175° South  Level Estimated
07:43AM -10.5132 -47.6847 175° South  Level Estimated
07:44AM -10.6330 -47.6741 175° South  Level Estimated
07:45AM -10.7529 -47.6634 175° South  Level Estimated
07:46AM -10.8727 -47.6528 175° South  Level Estimated
07:47AM -10.9925 -47.6422 175° South  Level Estimated
07:48AM -11.1124 -47.6315 175° South  Level Estimated
07:49AM -11.2322 -47.6209 175° South  Level Estimated
07:50AM -11.3521 -47.6102 175° South  Level Estimated
07:51AM -11.4719 -47.5995 175° South  Level Estimated
07:52AM -11.5918 -47.5889 175° South  Level Estimated
07:53AM -11.7116 -47.5782 175° South  Level Estimated
07:54AM -11.8314 -47.5675 175° South  Level Estimated
07:55AM -11.9513 -47.5568 175° South  Level Estimated
07:56AM -12.0711 -47.5461 175° South  Level Estimated
07:57AM -12.1910 -47.5353 175° South  Level Estimated
07:58AM -12.3108 -47.5246 175° South  Level Estimated
07:59AM -12.4306 -47.5138 175° South  Level Estimated
08:00AM -12.5505 -47.5031 175° South  Level Estimated
08:01AM -12.6703 -47.4923 175° South  Level Estimated
08:02AM -12.7901 -47.4815 175° South  Level Estimated
08:03AM -12.9100 -47.4707 175° South  Level Estimated
08:04AM -13.0298 -47.4599 175° South  Level Estimated
08:05AM -13.1497 -47.4491 175° South  Level Estimated
08:06AM -13.2695 -47.4383 175° South  Level Estimated
08:07AM -13.3893 -47.4275 175° South  Level Estimated
08:08AM -13.5092 -47.4166 175° South  Level Estimated
08:09AM -13.6290 -47.4058 175° South  Level Estimated
08:10AM -13.7488 -47.3949 175° South  Level Estimated
08:11AM -13.8687 -47.3840 175° South  Level Estimated
08:12AM -13.9885 -47.3732 175° South  Level Estimated
08:13AM -14.1083 -47.3623 175° South  Level Estimated
08:14AM -14.2282 -47.3514 175° South  Level Estimated
08:15AM -14.3480 -47.3404 175° South  Level Estimated
08:16AM -14.4678 -47.3295 175° South  Level Estimated
08:17AM -14.5876 -47.3186 175° South  Level Estimated
08:18AM -14.7075 -47.3076 175° South  Level Estimated
08:19AM -14.8273 -47.2966 175° South  Level Estimated
08:20AM -14.9471 -47.2857 175° South  Level Estimated
08:21AM -15.0670 -47.2747 175° South  Level Estimated
08:22AM -15.1868 -47.2637 175° South  Level Estimated
08:23AM -15.3066 -47.2527 175° South  Level Estimated
08:24AM -15.4264 -47.2416 175° South  Level Estimated
08:25AM -15.5463 -47.2306 175° South  Level Estimated
08:26AM -15.6661 -47.2195 175° South  Level Estimated
08:27AM -15.7859 -47.2085 175° South  Level Estimated
08:28AM -15.9058 -47.1974 175° South  Level Estimated
08:29AM -16.0256 -47.1863 175° South  Level Estimated
08:30AM -16.1454 -47.1752 175° South  Level Estimated
08:31AM -16.2652 -47.1641 175° South  Level Estimated
08:32AM -16.3850 -47.1529 175° South  Level Estimated
08:33AM -16.5049 -47.1418 175° South  Level Estimated
08:34AM -16.6247 -47.1306 175° South  Level Estimated
08:35AM -16.7445 -47.1195 175° South  Level Estimated
08:36AM -16.8643 -47.1083 175° South  Level Estimated
08:37AM -16.9841 -47.0971 175° South  Level Estimated
08:38AM -17.1040 -47.0858 175° South  Level Estimated
08:39AM -17.2238 -47.0746 175° South  Level Estimated
08:40AM -17.3436 -47.0634 175° South  Level Estimated
08:41AM -17.4634 -47.0521 175° South  Level Estimated
08:42AM -17.5832 -47.0408 175° South  Level Estimated
08:43AM -17.7031 -47.0295 175° South  Level Estimated
08:44AM -17.8229 -47.0182 175° South  Level Estimated
08:45AM -17.9427 -47.0069 175° South  Level Estimated
08:46AM -18.0625 -46.9956 175° South  Level Estimated
08:47AM -18.1823 -46.9842 175° South  Level Estimated
08:48AM -18.3021 -46.9729 175° South  Level Estimated
08:49AM -18.4219 -46.9615 175° South  Level Estimated
08:50AM -18.5417 -46.9501 175° South  Level Estimated
08:51AM -18.6615 -46.9387 175° South  Level Estimated
08:52AM -18.7813 -46.9272 175° South  Level Estimated
08:53AM -18.9011 -46.9158 175° South  Level Estimated
08:54AM -19.0210 -46.9043 175° South  Level Estimated
08:55AM -19.1408 -46.8928 175° South  Level Estimated
08:56AM -19.2606 -46.8813 175° South  Level Estimated
08:57AM -19.3804 -46.8698 175° South  Level Estimated
08:58AM -19.5002 -46.8583 175° South  Level Estimated
08:59AM -19.6200 -46.8467 175° South  Level Estimated
09:00AM -19.7398 -46.8352 175° South  Level Estimated
09:01AM -19.8596 -46.8236 175° South  Level Estimated
09:02AM -19.9794 -46.8120 175° South  Level Estimated
09:03AM -20.0992 -46.8004 175° South  Level Estimated
09:04AM -20.2190 -46.7888 175° South  Level Estimated
09:05AM -20.3388 -46.7771 175° South  Level Estimated
09:06AM -20.4586 -46.7654 175° South  Level Estimated
09:07AM -20.5784 -46.7537 175° South  Level Estimated
09:08AM -20.6982 -46.7420 175° South  Level Estimated
09:09AM -20.8180 -46.7303 175° South  Level Estimated
09:10AM -20.9378 -46.7186 175° South  Level Estimated
09:11AM -21.0576 -46.7068 175° South  Level Estimated
09:12AM -21.1774 -46.6950 175° South  Level Estimated
09:13AM -21.2972 -46.6832 175° South  Level Estimated
09:14AM -21.4170 -46.6714 175° South  Level Estimated
09:15AM -21.5367 -46.6596 175° South  Level Estimated
09:16AM -21.6565 -46.6477 175° South  Level Estimated
09:17AM -21.7763 -46.6358 175° South  Level Estimated
09:18AM -21.8961 -46.6239 175° South  Level Estimated
09:19AM -22.0159 -46.6120 175° South  Level Estimated
09:20AM -22.1357 -46.6001 175° South  Level Estimated
09:21AM -22.2555 -46.5881 175° South  Level Estimated
09:22AM -22.3753 -46.5761 175° South  Level Estimated
09:23AM -22.4951 -46.5641 175° South  Level Estimated
09:24AM -22.6148 -46.5521 175° South  Level Estimated
09:25AM -22.7346 -46.5401 175° South  Level Estimated
09:26AM -22.8544 -46.5280 175° South  Level Estimated
09:27AM -22.9742 -46.5159 175° South  Level Estimated
09:28AM -23.0940 -46.5038 175° South  Level Estimated
09:29AM -23.2137 -46.4917 175° South  Level Estimated
09:30AM -23.3335 -46.4795 175° South  Level Estimated
09:31AM -23.4321 -46.4695 175° South  Level Estimated
09:32AM -23.4321 -46.4695 350° North  Level Estimated
09:33AM -23.4321 -46.4695 350° North  Level Estimated
09:34AM -23.4321 -46.4695 350° North  Level Estimated
09:35AM -23.4321 -46.4695 350° North  Level Estimated
09:36AM -23.4321 -46.4695 350° North  Level Estimated
09:37AM -23.4321 -46.4695 350° North  Level Estimated
09:38AM -23.4321 -46.4695 350° North  Level Estimated
09:39AM -23.4321 -46.4695 350° North  Level Estimated
09:40AM -23.4321 -46.4695 350° North  Level Estimated
09:41AM -23.4321 -46.4695 350° North  Level Estimated
09:42AM -23.4321 -46.4695 350° North  Level Estimated
09:43AM -23.4321 -46.4695 350° North  Level Estimated
09:44AM -23.4321 -46.4695 350° North  Level Estimated